VTBSVTCC

Guest
Details From VTBS - Bangkok Suvarnabhumi Intl
To VTCC - Chiang Mai Intl
Flight Number -
Tags Generated
Created
Modified
Stats Distance 322 nm / 596 km
Max Altitude 0 ft / 0 m
Waypoints 3
Social Downloads 2
Likes 0
Share VATSIM

Download

Looking for another format? Having issues loading an existing format? Contact us
Advertisement - Login to hide

Notes

Generated

Route

VTBS CGM VTCC

ID Type Via Altitude Latitude Longitude Leg Dist Tot Dist Heading (true) Name
O VTBS APT - 0 ft / 0 m 13.70327˚ 100.74297˚ - 0 nm - -
CGM NDB - 0 ft / 0 m 18.75981˚ 98.96721˚ 320 nm 320 nm 342° / 341° CHIANG MAI NDB
O VTCC APT - 0 ft / 0 m 18.78087˚ 98.96270˚ 1 nm 321 nm 349° / 349° -

Altitude Profile

Advertisement - Login to hide

Weather


0- 5 10 15 20 25 30 35+ Temperature / ° C

Clouds and Precipitation
Forecast for 2017-12-13 12:00 UTC. Updated 2 hours ago

Ground ~20,000 ft ~40,000 ft Winds

VTBS

Details ICAO VTBS (BKK)
Name Bangkok Suvarnabhumi Intl
Region Thailand
Timezone Asia/Bangkok (UTC+7.0)
Stats Elevation 5 ft / 2 m (AMSL)
Location 13.680456° 100.747512°
Runways 2
Magnetic Variation 0.572° W

METAR

VTBS 130900Z 21007KT 170V240 9999 FEW020CB SCT035 30/23 Q1009 NOSIG

Decode

TAF

TAF VTBS 130500Z 1306/1412 18008KT 9000 FEW025 BECMG 1318/1320 12005KT BECMG 1320/1322 5000 BR FEW015 BECMG 1402/1404 18005KT 9000 NSW FEW025 BECMG 1408/1410 12005KT

Decode

Departure Runways

ID Width Length Bearing (true) Bearing (mag) Surface Threshold Offset Overrun Length
01L 200 ft / 61 m 12,194 ft / 3,717 m 14.26° 14.83° Asphalt 0 ft / 0 m 400 ft / 122 m
01R 200 ft / 61 m 13,181 ft / 4,018 m 14.19° 14.76° Asphalt 0 ft / 0 m 400 ft / 122 m
19L 200 ft / 61 m 13,181 ft / 4,018 m 194.19° 194.76° Asphalt 0 ft / 0 m 400 ft / 122 m
19R 200 ft / 61 m 12,194 ft / 3,717 m 194.26° 194.83° Asphalt 0 ft / 0 m 400 ft / 122 m

VTCC

Details ICAO VTCC (CNX)
Name Chiang Mai Intl
Region Thailand
Timezone Asia/Bangkok (UTC+7.0)
Stats Elevation 1,036 ft / 316 m (AMSL)
Location 18.766845° 98.962643°
Runways 1
Magnetic Variation 0.738° W

METAR

VTCC 130900Z 08003KT 9999 FEW035 32/17 Q1011 NOSIG

Decode

TAF

TAF VTCC 130500Z 1306/1412 VRB02KT 9999 FEW035

Decode

Destination Runways

ID Width Length Bearing (true) Bearing (mag) Surface Threshold Offset Overrun Length
18 148 ft / 45 m 10,237 ft / 3,120 m 180.22° 180.96° Asphalt 0 ft / 0 m 974 ft / 297 m
36 148 ft / 45 m 10,237 ft / 3,120 m 0.22° 0.96° Asphalt 0 ft / 0 m 341 ft / 104 m

Approach Navaids

Runway Type Ident Frequency Range Bearing (true) Bearing (mag) Slope Elevation
36 Localiser ICMA 109.90 MHz 18 nm / 33 km 359.49° 0.23° - 1,035 ft / 315 m (AMSL)
36 Glidescope ICMA 109.90 MHz 10 nm / 19 km 0.22° 0.96° 3.00° 1,005 ft / 306 m (AMSL)
36 DME ICMA 109.90 MHz 18 nm / 33 km - - - 1,035 ft / 315 m (AMSL)

Popular Alternatives